createdAt,value
2019-04-14T00:01:10.819Z,85.93
2019-04-14T00:04:00.630Z,85.89
2019-04-14T00:06:35.130Z,85.96
2019-04-14T00:09:11.768Z,85.91
2019-04-14T00:11:45.902Z,85.93
2019-04-14T00:14:18.552Z,85.95
2019-04-14T00:16:51.023Z,85.97
2019-04-14T00:19:23.842Z,85.83
2019-04-14T00:21:56.638Z,85.74
2019-04-14T00:24:29.105Z,85.65
2019-04-14T00:27:01.939Z,85.60
2019-04-14T00:29:35.096Z,85.59
2019-04-14T00:32:07.420Z,85.53
2019-04-14T00:34:48.541Z,85.48
2019-04-14T00:37:35.788Z,85.77
2019-04-14T00:40:10.788Z,85.85
2019-04-14T00:42:52.424Z,86.04
2019-04-14T00:45:52.712Z,85.56
2019-04-14T00:48:24.277Z,85.29
2019-04-14T00:50:56.635Z,85.02
2019-04-14T00:53:29.537Z,85.03
2019-04-14T00:56:01.978Z,84.83
2019-04-14T00:58:34.357Z,84.65
2019-04-14T01:01:07.020Z,84.63
2019-04-14T01:03:39.460Z,84.46
2019-04-14T01:06:12.224Z,84.43
2019-04-14T01:08:44.601Z,84.41
2019-04-14T01:11:18.597Z,84.23
2019-04-14T01:13:50.850Z,84.18
2019-04-14T01:16:24.886Z,83.95
2019-04-14T01:18:55.963Z,83.72
2019-04-14T01:21:28.483Z,83.59
2019-04-14T01:24:01.055Z,83.52
2019-04-14T01:26:33.809Z,83.37
2019-04-14T01:29:06.385Z,83.13
2019-04-14T01:31:38.256Z,82.85
2019-04-14T01:34:10.781Z,82.66
2019-04-14T01:36:43.203Z,82.18
2019-04-14T01:39:16.082Z,82.15
2019-04-14T01:41:48.204Z,82.03
2019-04-14T01:44:20.066Z,81.87
2019-04-14T01:46:52.068Z,81.76
2019-04-14T01:49:26.807Z,81.69
2019-04-14T01:52:08.192Z,81.72
2019-04-14T01:55:11.243Z,81.51
2019-04-14T01:58:12.230Z,80.97
2019-04-14T02:01:04.198Z,80.80
2019-04-14T02:03:36.620Z,80.29
2019-04-14T02:06:09.277Z,80.07
2019-04-14T02:08:41.538Z,80.02
2019-04-14T02:11:13.716Z,80.07
2019-04-14T02:13:46.599Z,79.69
2019-04-14T02:16:26.927Z,79.62
2019-04-14T02:18:54.058Z,79.72
2019-04-14T02:21:26.273Z,79.46
2019-04-14T02:23:58.624Z,79.22
2019-04-14T02:26:30.929Z,79.12
2019-04-14T02:29:03.625Z,78.85
2019-04-14T02:32:04.249Z,78.90
2019-04-14T02:34:45.479Z,78.89
2019-04-14T02:37:10.606Z,78.79
2019-04-14T02:40:04.060Z,78.58
2019-04-14T02:44:55.873Z,77.93
2019-04-14T02:47:45.089Z,77.32
2019-04-14T02:50:05.416Z,76.81
2019-04-14T02:52:47.209Z,76.36
2019-04-14T02:55:05.237Z,76.02
2019-04-14T02:57:41.700Z,75.76
2019-04-14T03:00:27.398Z,75.34
2019-04-14T03:05:16.115Z,74.51
2019-04-14T03:13:05.494Z,73.87
2019-04-14T03:15:43.542Z,73.79
2019-04-14T03:18:44.632Z,73.66
2019-04-14T03:21:34.819Z,73.70
2019-04-14T03:24:10.938Z,73.50
2019-04-14T03:27:26.568Z,73.29
2019-04-14T03:29:59.829Z,73.17
2019-04-14T03:35:23.256Z,72.59
2019-04-14T03:37:45.207Z,72.51
2019-04-14T03:40:10.013Z,72.62
2019-04-14T03:42:43.895Z,72.30
2019-04-14T03:45:28.301Z,72.18
2019-04-14T03:48:15.024Z,72.12
2019-04-14T03:50:24.495Z,71.58
2019-04-14T03:53:09.577Z,71.47
2019-04-14T03:55:20.470Z,71.35
2019-04-14T03:57:41.179Z,71.41
2019-04-14T04:00:13.875Z,71.92
2019-04-14T04:02:46.680Z,71.65
2019-04-14T04:05:19.487Z,71.61
2019-04-14T04:07:51.792Z,71.44
2019-04-14T04:10:24.639Z,71.46
2019-04-14T04:12:57.631Z,71.66
2019-04-14T04:15:30.339Z,71.37
2019-04-14T04:18:09.149Z,71.14
2019-04-14T04:21:09.544Z,70.81
2019-04-14T04:23:48.766Z,71.26
2019-04-14T04:26:42.966Z,71.21
2019-04-14T04:29:27.194Z,70.99
2019-04-14T04:32:27.557Z,71.02
2019-04-14T04:35:34.619Z,70.51
2019-04-14T04:38:44.260Z,69.97
2019-04-14T04:41:16.867Z,69.55
2019-04-14T04:43:49.427Z,69.45
2019-04-14T04:46:22.033Z,69.50
2019-04-14T04:49:04.496Z,69.13
2019-04-14T04:51:27.377Z,69.09
2019-04-14T04:54:01.722Z,68.94
2019-04-14T04:56:34.076Z,68.78
2019-04-14T04:59:07.550Z,68.67
2019-04-14T05:01:39.349Z,68.74
2019-04-14T05:04:11.874Z,68.57
2019-04-14T05:07:09.897Z,68.20
2019-04-14T05:10:00.163Z,67.89
2019-04-14T05:12:56.757Z,67.72
2019-04-14T05:15:48.956Z,68.03
2019-04-14T05:18:25.221Z,67.98
2019-04-14T05:20:57.582Z,67.66
2019-04-14T05:23:31.999Z,67.03
2019-04-14T05:26:06.958Z,67.26
2019-04-14T05:28:39.645Z,66.90
2019-04-14T05:31:12.167Z,65.88
2019-04-14T05:33:44.880Z,66.14
2019-04-14T05:36:17.113Z,66.46
2019-04-14T05:38:49.565Z,66.28
2019-04-14T05:41:22.340Z,66.05
2019-04-14T05:43:58.395Z,66.28
2019-04-14T05:46:27.930Z,65.92
2019-04-14T05:48:59.966Z,65.92
2019-04-14T05:51:32.532Z,65.86
2019-04-14T05:54:05.560Z,65.11
2019-04-14T05:56:39.649Z,64.35
2019-04-14T05:59:11.803Z,65.09
2019-04-14T06:01:44.306Z,64.39
2019-04-14T06:04:16.110Z,64.54
2019-04-14T06:06:47.964Z,64.68
2019-04-14T06:09:20.612Z,63.91
2019-04-14T06:11:52.245Z,63.70
2019-04-14T06:14:25.199Z,64.43
2019-04-14T06:16:56.875Z,63.63
2019-04-14T06:19:37.021Z,63.69
2019-04-14T06:22:03.001Z,63.01
2019-04-14T06:24:34.592Z,63.74
2019-04-14T06:27:06.102Z,63.60
2019-04-14T06:29:37.588Z,63.92
2019-04-14T06:32:37.354Z,62.46
2019-04-14T06:35:15.163Z,62.10
2019-04-14T06:37:53.666Z,62.74
2019-04-14T06:40:28.061Z,62.22
2019-04-14T06:42:59.899Z,62.69
2019-04-14T06:45:32.006Z,63.09
2019-04-14T06:48:03.936Z,63.08
2019-04-14T06:50:35.650Z,62.97
2019-04-14T06:53:07.355Z,62.93
2019-04-14T06:55:39.579Z,62.18
2019-04-14T06:58:11.428Z,62.65
2019-04-14T07:00:43.361Z,61.70
2019-04-14T07:03:14.949Z,62.13
2019-04-14T07:05:47.029Z,61.66
2019-04-14T07:08:18.532Z,62.33
2019-04-14T07:10:50.281Z,61.50
2019-04-14T07:13:21.990Z,60.81
2019-04-14T07:15:54.142Z,61.12
2019-04-14T07:18:26.012Z,59.99
2019-04-14T07:20:59.221Z,59.81
2019-04-14T07:23:31.207Z,60.29
2019-04-14T07:26:02.891Z,60.47
2019-04-14T07:28:35.405Z,60.64
2019-04-14T07:31:24.698Z,59.90
2019-04-14T07:34:24.455Z,60.42
2019-04-14T07:37:19.160Z,60.06
2019-04-14T07:40:00.955Z,60.50
2019-04-14T07:42:59.310Z,59.51
2019-04-14T07:45:50.568Z,59.10
2019-04-14T07:48:29.302Z,59.42
2019-04-14T07:51:24.613Z,59.28
2019-04-14T07:54:03.166Z,58.04
2019-04-14T07:57:03.099Z,56.89
2019-04-14T07:59:52.585Z,56.92
2019-04-14T08:02:32.175Z,56.69
2019-04-14T08:05:25.804Z,55.58
2019-04-14T08:07:57.537Z,55.91
2019-04-14T08:10:29.257Z,54.25
2019-04-14T08:13:01.255Z,53.77
2019-04-14T08:15:33.141Z,55.13
2019-04-14T08:18:04.960Z,54.95
2019-04-14T08:20:38.306Z,54.91
2019-04-14T08:23:09.852Z,55.15
2019-04-14T08:25:41.840Z,54.74
2019-04-14T08:28:13.366Z,54.21
2019-04-14T08:30:44.953Z,54.46
2019-04-14T08:33:16.925Z,54.42
2019-04-14T08:35:48.885Z,55.10
2019-04-14T08:38:20.447Z,55.50
2019-04-14T08:40:52.402Z,56.71
2019-04-14T08:43:42.092Z,56.22
2019-04-14T08:46:41.951Z,55.59
2019-04-14T08:49:22.013Z,56.68
2019-04-14T08:52:13.230Z,56.59
2019-04-14T08:54:56.855Z,56.01
2019-04-14T08:57:56.656Z,57.18
2019-04-14T09:01:02.679Z,54.81
2019-04-14T09:03:47.204Z,54.13
2019-04-14T09:06:32.048Z,54.44
2019-04-14T09:09:22.269Z,54.87
2019-04-14T09:12:15.428Z,55.52
2019-04-14T09:14:39.179Z,54.71
2019-04-14T09:17:10.871Z,54.78
2019-04-14T09:19:42.690Z,54.21
2019-04-14T09:22:16.006Z,53.96
2019-04-14T09:24:47.890Z,53.68
2019-04-14T09:27:19.638Z,55.38
2019-04-14T09:29:53.362Z,55.37
2019-04-14T09:32:26.501Z,53.40
2019-04-14T09:34:58.073Z,53.26
2019-04-14T09:37:30.257Z,55.49
2019-04-14T09:40:01.803Z,55.86
2019-04-14T09:42:33.553Z,55.22
2019-04-14T09:45:07.746Z,54.54
2019-04-14T09:47:42.630Z,54.56
2019-04-14T09:50:15.007Z,54.52
2019-04-14T09:52:46.739Z,55.05
2019-04-14T09:55:23.541Z,53.40
2019-04-14T09:57:55.753Z,53.87
2019-04-14T10:00:28.548Z,53.39
2019-04-14T10:03:01.024Z,53.06
2019-04-14T10:05:32.766Z,53.87
2019-04-14T10:08:05.737Z,53.28
2019-04-14T10:10:39.692Z,53.17
2019-04-14T10:13:12.936Z,53.62
2019-04-14T10:15:46.241Z,53.18
2019-04-14T10:18:17.741Z,52.88
2019-04-14T10:20:49.691Z,51.19
2019-04-14T10:23:21.844Z,50.36
2019-04-14T10:25:53.607Z,52.77
2019-04-14T10:28:25.980Z,49.82
2019-04-14T10:30:59.179Z,48.45
2019-04-14T10:33:32.189Z,48.41
2019-04-14T10:36:04.843Z,49.21
2019-04-14T10:38:36.725Z,48.02
2019-04-14T10:41:08.771Z,47.33
2019-04-14T10:43:42.005Z,46.56
2019-04-14T10:46:15.044Z,46.26
2019-04-14T10:48:46.919Z,47.79
2019-04-14T10:51:29.863Z,46.67
2019-04-14T10:53:57.041Z,45.98
2019-04-14T10:56:28.621Z,46.75
2019-04-14T10:59:00.446Z,45.66
2019-04-14T11:01:32.812Z,44.63
2019-04-14T11:04:07.921Z,45.26
2019-04-14T11:06:45.318Z,44.16
2019-04-14T11:09:17.303Z,44.21
2019-04-14T11:11:51.356Z,44.30
2019-04-14T11:14:24.953Z,43.19
2019-04-14T11:16:56.522Z,43.82
2019-04-14T11:19:32.866Z,43.61
2019-04-14T11:22:06.688Z,43.14
2019-04-14T11:24:38.754Z,43.79
2019-04-14T11:27:10.572Z,43.88
2019-04-14T11:29:42.256Z,40.29
2019-04-14T11:32:51.558Z,39.02
2019-04-14T11:35:31.578Z,39.85
2019-04-14T11:38:22.561Z,41.05
2019-04-14T11:41:00.125Z,41.71
2019-04-14T11:43:31.966Z,39.48
2019-04-14T11:46:04.281Z,39.51
2019-04-14T11:48:36.029Z,40.32
2019-04-14T11:51:09.038Z,39.58
2019-04-14T11:53:41.977Z,39.76
2019-04-14T11:56:14.667Z,38.61
2019-04-14T11:58:46.177Z,37.52
2019-04-14T12:01:35.409Z,35.49
2019-04-14T12:04:25.994Z,34.62
2019-04-14T12:07:15.402Z,33.54
2019-04-14T12:09:53.397Z,31.22
2019-04-14T12:12:25.759Z,30.89
2019-04-14T12:14:57.517Z,31.28
2019-04-14T12:17:29.144Z,29.97
2019-04-14T12:20:01.481Z,30.81
2019-04-14T12:22:33.356Z,28.87
2019-04-14T12:25:07.115Z,28.60
2019-04-14T12:27:39.770Z,26.72
2019-04-14T12:30:13.550Z,27.04
2019-04-14T12:32:45.491Z,26.44
2019-04-14T12:35:17.064Z,26.55
2019-04-14T12:37:49.683Z,25.78
2019-04-14T12:40:21.214Z,26.81
2019-04-14T12:42:59.173Z,27.69
2019-04-14T12:46:01.059Z,27.64
2019-04-14T12:48:39.967Z,28.71
2019-04-14T12:51:34.995Z,29.40
2019-04-14T12:54:07.664Z,30.28
2019-04-14T12:56:39.186Z,29.67
2019-04-14T12:59:18.988Z,29.40
2019-04-14T13:02:11.085Z,27.60
2019-04-14T13:04:43.092Z,28.56
2019-04-14T13:07:15.050Z,28.52
2019-04-14T13:09:47.097Z,28.86
2019-04-14T13:12:19.499Z,28.56
2019-04-14T13:14:51.235Z,29.04
2019-04-14T13:17:22.822Z,29.18
2019-04-14T13:19:54.675Z,28.14
2019-04-14T13:22:33.768Z,27.39
2019-04-14T13:25:02.048Z,28.64
2019-04-14T13:27:33.606Z,28.69
2019-04-14T13:30:08.953Z,28.88
2019-04-14T13:32:40.634Z,29.26
2019-04-14T13:35:12.504Z,29.26
2019-04-14T13:37:43.983Z,28.09
2019-04-14T13:40:16.326Z,28.09
2019-04-14T13:42:48.030Z,27.38
2019-04-14T13:45:21.333Z,27.99
2019-04-14T13:47:54.497Z,27.72
2019-04-14T13:50:26.112Z,28.64
2019-04-14T13:52:58.587Z,28.48
2019-04-14T13:55:30.814Z,27.65
2019-04-14T13:58:02.486Z,27.21
2019-04-14T14:00:34.328Z,26.94
2019-04-14T14:03:06.223Z,26.99
2019-04-14T14:05:38.030Z,27.45
2019-04-14T14:08:09.890Z,27.99
2019-04-14T14:10:42.280Z,27.27
2019-04-14T14:13:30.234Z,27.23
2019-04-14T14:16:19.019Z,27.42
2019-04-14T14:19:00.183Z,28.13
2019-04-14T14:21:54.258Z,27.32
2019-04-14T14:24:40.470Z,27.25
2019-04-14T14:27:13.200Z,26.48
2019-04-14T14:29:45.192Z,27.57
2019-04-14T14:32:24.357Z,27.69
2019-04-14T14:34:57.699Z,28.02
2019-04-14T14:37:29.253Z,27.56
2019-04-14T14:40:00.728Z,27.03
2019-04-14T14:42:32.899Z,27.61
2019-04-14T14:45:29.146Z,27.80
2019-04-14T14:48:20.162Z,27.75
2019-04-14T14:51:02.435Z,28.08
2019-04-14T14:53:34.244Z,26.69
2019-04-14T14:56:06.179Z,26.40
2019-04-14T14:58:37.921Z,25.68
2019-04-14T15:01:09.624Z,26.42
2019-04-14T15:03:41.476Z,26.84
2019-04-14T15:06:13.316Z,26.37
2019-04-14T15:08:45.230Z,27.05
2019-04-14T15:11:16.981Z,26.83
2019-04-14T15:13:48.905Z,26.91
2019-04-14T15:16:20.815Z,27.13
2019-04-14T15:18:54.149Z,26.48
2019-04-14T15:21:26.054Z,26.06
2019-04-14T15:23:58.290Z,26.29
2019-04-14T15:26:30.132Z,27.31
2019-04-14T15:29:02.193Z,27.31
2019-04-14T15:31:34.368Z,26.38
2019-04-14T15:34:06.664Z,26.80
2019-04-14T15:36:38.571Z,27.13
2019-04-14T15:39:10.382Z,27.05
2019-04-14T15:41:42.163Z,27.48
2019-04-14T15:44:14.448Z,27.02
2019-04-14T15:46:47.662Z,26.75
2019-04-14T15:49:20.654Z,26.83
2019-04-14T15:51:53.508Z,26.59
2019-04-14T15:54:25.680Z,26.81
2019-04-14T15:57:15.594Z,27.44
2019-04-14T16:00:12.042Z,27.70
2019-04-14T16:02:49.569Z,28.21
2019-04-14T16:05:39.346Z,28.21
2019-04-14T16:08:21.848Z,28.51
2019-04-14T16:11:02.202Z,28.57
2019-04-14T16:13:50.417Z,28.84
2019-04-14T16:16:48.000Z,28.34
2019-04-14T16:19:53.897Z,28.56
2019-04-14T16:22:27.167Z,28.18
2019-04-14T16:24:59.068Z,28.71
2019-04-14T16:27:48.476Z,29.58
2019-04-14T16:30:51.178Z,28.71
2019-04-14T16:33:47.832Z,28.78
2019-04-14T16:36:21.058Z,28.69
2019-04-14T16:38:54.464Z,28.33
2019-04-14T16:41:26.774Z,28.41
2019-04-14T16:43:59.339Z,28.63
2019-04-14T16:46:31.224Z,28.66
2019-04-14T16:49:02.904Z,29.00
2019-04-14T16:51:40.825Z,29.06
2019-04-14T16:54:21.319Z,29.48
2019-04-14T16:57:18.080Z,29.49
2019-04-14T16:59:49.640Z,29.52
2019-04-14T17:02:21.466Z,29.63
2019-04-14T17:04:53.413Z,29.70
2019-04-14T17:07:26.886Z,30.09
2019-04-14T17:09:58.488Z,30.59
2019-04-14T17:12:30.291Z,31.07
2019-04-14T17:15:10.461Z,31.43
2019-04-14T17:17:59.789Z,31.87
2019-04-14T17:20:49.953Z,32.29
2019-04-14T17:23:35.378Z,32.76
2019-04-14T17:26:25.385Z,33.47
2019-04-14T17:29:20.688Z,33.88
2019-04-14T17:32:06.069Z,34.22
2019-04-14T17:34:49.670Z,34.37
2019-04-14T17:37:39.438Z,34.77
2019-04-14T17:40:21.692Z,34.99
2019-04-14T17:43:08.448Z,35.34
2019-04-14T17:45:50.695Z,35.43
2019-04-14T17:48:49.347Z,35.79
2019-04-14T17:51:26.199Z,35.93
2019-04-14T17:54:29.232Z,36.11
2019-04-14T17:57:30.383Z,36.31
2019-04-14T18:00:18.219Z,36.71
2019-04-14T18:03:02.782Z,36.84
2019-04-14T18:05:40.232Z,37.26
2019-04-14T18:08:31.153Z,37.48
2019-04-14T18:11:21.743Z,37.81
2019-04-14T18:14:11.198Z,37.99
2019-04-14T18:17:04.752Z,38.19
2019-04-14T18:19:46.316Z,38.16
2019-04-14T18:22:18.281Z,38.45
2019-04-14T18:24:50.125Z,38.46
2019-04-14T18:27:21.792Z,38.77
2019-04-14T18:30:02.657Z,38.78
2019-04-14T18:32:40.583Z,38.78
2019-04-14T18:35:33.079Z,38.91
2019-04-14T18:38:27.431Z,39.07
2019-04-14T18:41:15.605Z,39.30
2019-04-14T18:44:13.458Z,39.30
2019-04-14T18:47:04.498Z,39.52
2019-04-14T18:50:02.468Z,39.51
2019-04-14T18:52:56.337Z,39.69
2019-04-14T18:56:02.262Z,39.95
2019-04-14T18:58:51.798Z,39.84
2019-04-14T19:01:26.821Z,40.08
2019-04-14T19:04:02.092Z,40.31
2019-04-14T19:06:32.562Z,40.45
2019-04-14T19:09:06.001Z,40.43
2019-04-14T19:11:53.806Z,40.67
2019-04-14T19:14:31.267Z,40.87
2019-04-14T19:17:07.953Z,41.02
2019-04-14T19:19:42.209Z,41.26
2019-04-14T19:22:14.223Z,41.51
2019-04-14T19:24:45.765Z,41.58
2019-04-14T19:27:17.314Z,41.79
2019-04-14T19:29:49.166Z,42.13
2019-04-14T19:32:21.645Z,42.31
2019-04-14T19:34:54.909Z,42.35
2019-04-14T19:37:27.627Z,42.63
2019-04-14T19:39:59.320Z,42.49
2019-04-14T19:42:32.969Z,42.80
2019-04-14T19:45:04.854Z,42.66
2019-04-14T19:47:37.028Z,42.64
2019-04-14T19:50:09.225Z,42.67
2019-04-14T19:52:41.020Z,42.78
2019-04-14T19:55:20.261Z,42.84
2019-04-14T19:57:47.534Z,42.77
2019-04-14T20:00:19.763Z,42.70
2019-04-14T20:02:52.784Z,43.23
2019-04-14T20:05:24.536Z,42.79
2019-04-14T20:07:56.422Z,42.88
2019-04-14T20:10:29.034Z,43.03
2019-04-14T20:13:01.733Z,43.04
2019-04-14T20:15:37.663Z,43.07
2019-04-14T20:18:24.487Z,42.88
2019-04-14T20:21:20.984Z,43.04
2019-04-14T20:24:02.200Z,42.94
2019-04-14T20:26:58.791Z,43.03
2019-04-14T20:29:34.096Z,43.12
2019-04-14T20:32:11.259Z,43.10
2019-04-14T20:34:42.756Z,43.19
2019-04-14T20:37:15.047Z,43.17
2019-04-14T20:39:46.813Z,43.43
2019-04-14T20:42:18.374Z,43.38
2019-04-14T20:44:50.207Z,43.39
2019-04-14T20:47:21.904Z,43.25
2019-04-14T20:49:54.128Z,43.32
2019-04-14T20:52:25.686Z,43.41
2019-04-14T20:54:58.785Z,43.29
2019-04-14T20:57:30.715Z,43.35
2019-04-14T21:00:02.507Z,43.31
2019-04-14T21:02:54.722Z,43.31
2019-04-14T21:05:46.072Z,43.44
2019-04-14T21:08:35.158Z,43.34
2019-04-14T21:11:19.839Z,43.27
2019-04-14T21:14:00.379Z,43.18
2019-04-14T21:16:38.522Z,43.27
2019-04-14T21:19:17.376Z,43.36
2019-04-14T21:22:12.970Z,43.35
2019-04-14T21:25:09.604Z,43.49
2019-04-14T21:28:00.848Z,43.53
2019-04-14T21:30:54.689Z,43.50
2019-04-14T21:34:04.186Z,43.71
2019-04-14T21:36:55.089Z,43.77
2019-04-14T21:39:34.839Z,43.77
2019-04-14T21:42:07.543Z,43.69
2019-04-14T21:44:40.536Z,43.73
2019-04-14T21:47:13.303Z,43.76
2019-04-14T21:49:47.059Z,44.02
2019-04-14T21:52:41.355Z,44.07
2019-04-14T21:55:14.583Z,44.18
2019-04-14T21:58:05.481Z,44.31
2019-04-14T22:01:48.957Z,44.47
2019-04-14T22:04:47.867Z,44.43
2019-04-14T22:07:38.746Z,44.77
2019-04-14T22:10:43.299Z,44.87
2019-04-14T22:13:15.184Z,44.92
2019-04-14T22:15:47.217Z,44.99
2019-04-14T22:18:19.712Z,45.10
2019-04-14T22:20:51.454Z,45.11
2019-04-14T22:23:23.398Z,45.38
2019-04-14T22:25:56.390Z,45.38
2019-04-14T22:28:27.910Z,45.44
2019-04-14T22:30:59.558Z,45.47
2019-04-14T22:33:31.792Z,45.71
2019-04-14T22:36:04.305Z,45.78
2019-04-14T22:38:36.082Z,46.01
2019-04-14T22:41:07.568Z,45.83
2019-04-14T22:43:39.398Z,45.94
2019-04-14T22:46:11.161Z,45.95
2019-04-14T22:48:42.696Z,46.06
2019-04-14T22:51:16.372Z,46.27
2019-04-14T22:53:48.556Z,46.45
2019-04-14T22:56:21.059Z,46.54
2019-04-14T22:58:52.967Z,46.65
2019-04-14T23:01:28.240Z,46.73
2019-04-14T23:04:22.752Z,46.94
2019-04-14T23:07:17.849Z,47.45
2019-04-14T23:10:11.513Z,47.69
2019-04-14T23:13:03.323Z,47.78
2019-04-14T23:15:47.206Z,48.31
2019-04-14T23:18:39.727Z,48.11
2019-04-14T23:21:21.509Z,47.75
2019-04-14T23:24:10.050Z,48.08
2019-04-14T23:26:51.832Z,48.30
2019-04-14T23:29:15.188Z,48.25
2019-04-14T23:31:47.167Z,48.16
2019-04-14T23:34:20.114Z,48.68
2019-04-14T23:36:51.819Z,48.69
2019-04-14T23:39:24.382Z,48.89
2019-04-14T23:41:56.096Z,48.94
2019-04-14T23:44:27.719Z,49.26
2019-04-14T23:47:00.610Z,49.19
2019-04-14T23:49:32.275Z,49.08
2019-04-14T23:52:04.361Z,49.28
2019-04-14T23:54:36.013Z,49.43
2019-04-14T23:57:07.511Z,49.51
2019-04-14T23:59:39.237Z,49.58
